createdAt,value
2023-05-13T00:03:51.392Z,97022.66
2023-05-13T00:07:51.586Z,97023.22
2023-05-13T00:11:51.784Z,97019.81
2023-05-13T00:15:52.273Z,97012.44
2023-05-13T00:19:55.062Z,97032.66
2023-05-13T00:23:55.369Z,97027.81
2023-05-13T00:27:55.502Z,97035.88
2023-05-13T00:31:55.740Z,97036.78
2023-05-13T00:35:58.580Z,97036.19
2023-05-13T00:39:58.845Z,97037.22
2023-05-13T00:44:00.106Z,97039.28
2023-05-13T00:48:01.491Z,97032.75
2023-05-13T00:52:05.365Z,97034.06
2023-05-13T00:56:05.565Z,96999.94
2023-05-13T01:00:08.311Z,97036.63
2023-05-13T01:04:23.719Z,97035.41
2023-05-13T01:08:40.635Z,97023.88
2023-05-13T01:12:48.421Z,97025.78
2023-05-13T01:16:55.074Z,97039.59
2023-05-13T01:20:56.853Z,97038.91
2023-05-13T01:25:00.006Z,97035.97
2023-05-13T01:29:00.756Z,97046.72
2023-05-13T01:33:02.457Z,97027.44
2023-05-13T01:37:05.399Z,97049.81
2023-05-13T01:41:08.947Z,97036.84
2023-05-13T01:45:12.804Z,97044.84
2023-05-13T01:49:13.586Z,97017.25
2023-05-13T01:53:14.072Z,97047.56
2023-05-13T01:57:17.218Z,97035.41
2023-05-13T02:01:17.889Z,97044.50
2023-05-13T02:05:19.298Z,97040.81
2023-05-13T02:09:19.926Z,97037.59
2023-05-13T02:13:22.715Z,97038.19
2023-05-13T02:17:23.070Z,97041.94
2023-05-13T02:21:23.399Z,97038.41
2023-05-13T02:25:23.975Z,97036.78
2023-05-13T02:29:26.882Z,97035.25
2023-05-13T02:33:27.328Z,97037.97
2023-05-13T02:37:28.048Z,97046.75
2023-05-13T02:41:34.689Z,97039.38
2023-05-13T02:45:37.514Z,96929.56
2023-05-13T02:49:38.448Z,97042.06
2023-05-13T02:53:39.878Z,97045.31
2023-05-13T02:57:42.576Z,97050.72
2023-05-13T03:01:45.517Z,97045.84
2023-05-13T03:05:45.818Z,97037.78
2023-05-13T03:09:46.120Z,96978.38
2023-05-13T03:13:46.438Z,97033.66
2023-05-13T03:17:50.557Z,97036.56
2023-05-13T03:21:53.806Z,97040.84
2023-05-13T03:25:54.252Z,97039.28
2023-05-13T03:29:54.598Z,97050.00
2023-05-13T03:33:58.565Z,97051.44
2023-05-13T03:37:58.898Z,97055.69
2023-05-13T03:41:59.609Z,97062.69
2023-05-13T03:46:00.054Z,97053.84
2023-05-13T03:50:04.667Z,97064.03
2023-05-13T03:54:11.755Z,97051.44
2023-05-13T03:58:19.299Z,97059.50
2023-05-13T04:02:21.989Z,97062.69
2023-05-13T04:06:24.914Z,97058.94
2023-05-13T04:10:25.142Z,97069.66
2023-05-13T04:14:25.372Z,97068.88
2023-05-13T04:18:25.590Z,97066.44
2023-05-13T04:22:28.459Z,97065.38
2023-05-13T04:26:28.862Z,97041.78
2023-05-13T04:30:29.264Z,97056.44
2023-05-13T04:34:30.593Z,97066.25
2023-05-13T04:38:34.614Z,97069.63
2023-05-13T04:42:35.933Z,97074.41
2023-05-13T04:46:38.436Z,97071.72
2023-05-13T04:50:38.889Z,97068.00
2023-05-13T04:54:42.850Z,97068.59
2023-05-13T04:58:44.131Z,97071.75
2023-05-13T05:02:47.641Z,97087.56
2023-05-13T05:06:49.601Z,97093.94
2023-05-13T05:10:53.826Z,97085.66
2023-05-13T05:14:54.384Z,97086.16
2023-05-13T05:18:54.776Z,97080.72
2023-05-13T05:22:56.181Z,97088.22
2023-05-13T05:27:02.387Z,97085.84
2023-05-13T05:31:03.314Z,97096.78
2023-05-13T05:35:05.446Z,97106.91
2023-05-13T05:39:07.025Z,97034.19
2023-05-13T05:43:13.873Z,97110.03
2023-05-13T05:47:14.812Z,97110.09
2023-05-13T05:51:15.084Z,97099.97
2023-05-13T05:55:15.401Z,97104.59
2023-05-13T05:59:18.352Z,97105.13
2023-05-13T06:03:19.013Z,97101.09
2023-05-13T06:07:19.508Z,97096.31
2023-05-13T06:11:20.117Z,97092.81
2023-05-13T06:15:23.024Z,97114.00
2023-05-13T06:19:23.998Z,97084.91
2023-05-13T06:23:25.090Z,97117.38
2023-05-13T06:27:25.630Z,97105.28
2023-05-13T06:31:29.237Z,97099.53
2023-05-13T06:35:30.726Z,97113.25
2023-05-13T06:39:31.755Z,97098.00
2023-05-13T06:43:32.162Z,97112.69
2023-05-13T06:47:42.579Z,97111.66
2023-05-13T06:51:44.381Z,97110.56
2023-05-13T06:55:45.069Z,97112.91
2023-05-13T06:59:47.923Z,97117.97
2023-05-13T07:03:51.755Z,97115.03
2023-05-13T07:07:53.875Z,97098.41
2023-05-13T07:11:54.414Z,97113.34
2023-05-13T07:15:54.982Z,97096.50
2023-05-13T07:19:58.012Z,97105.63
2023-05-13T07:23:58.243Z,97114.34
2023-05-13T07:27:58.484Z,97118.84
2023-05-13T07:31:58.672Z,97108.66
2023-05-13T07:36:01.533Z,97113.03
2023-05-13T07:40:01.936Z,97119.53
2023-05-13T07:44:02.337Z,97115.28
2023-05-13T07:48:03.146Z,97128.06
2023-05-13T07:52:06.218Z,97117.31
2023-05-13T07:56:08.029Z,97121.78
2023-05-13T08:00:10.745Z,97118.66
2023-05-13T08:04:15.703Z,97122.31
2023-05-13T08:08:18.679Z,97130.34
2023-05-13T08:12:18.929Z,97135.66
2023-05-13T08:16:19.184Z,97139.69
2023-05-13T08:20:19.625Z,97135.41
2023-05-13T08:24:22.421Z,97134.84
2023-05-13T08:28:22.769Z,97136.69
2023-05-13T08:32:23.153Z,97138.41
2023-05-13T08:36:26.188Z,97141.44
2023-05-13T08:40:29.499Z,97132.78
2023-05-13T08:44:35.651Z,97147.47
2023-05-13T08:48:39.945Z,97142.03
2023-05-13T08:52:41.498Z,97142.22
2023-05-13T08:56:53.956Z,97150.66
2023-05-13T09:01:01.936Z,97151.34
2023-05-13T09:05:12.056Z,97152.44
2023-05-13T09:09:13.509Z,97150.06
2023-05-13T09:13:21.295Z,97134.72
2023-05-13T09:17:22.333Z,97119.31
2023-05-13T09:21:28.301Z,97150.81
2023-05-13T09:25:30.841Z,97159.59
2023-05-13T09:29:33.736Z,97155.53
2023-05-13T09:33:34.384Z,97153.25
2023-05-13T09:37:34.734Z,97156.31
2023-05-13T09:41:35.378Z,97152.16
2023-05-13T09:45:39.374Z,97159.50
2023-05-13T09:49:40.182Z,97162.16
2023-05-13T09:53:40.492Z,97159.34
2023-05-13T09:57:42.656Z,97166.63
2023-05-13T10:01:48.264Z,97152.44
2023-05-13T10:05:48.978Z,97155.53
2023-05-13T10:09:50.431Z,97158.88
2023-05-13T10:13:59.113Z,97149.34
2023-05-13T10:18:05.274Z,97160.91
2023-05-13T10:22:08.397Z,97158.19
2023-05-13T10:26:10.049Z,97162.22
2023-05-13T10:30:12.417Z,97153.78
2023-05-13T10:34:16.406Z,97151.38
2023-05-13T10:38:27.289Z,97148.69
2023-05-13T10:42:46.302Z,97129.31
2023-05-13T10:46:47.075Z,97136.72
2023-05-13T10:50:59.725Z,97152.34
2023-05-13T10:55:05.407Z,97149.66
2023-05-13T10:59:08.285Z,97133.91
2023-05-13T11:03:18.405Z,97138.88
2023-05-13T11:07:21.484Z,97149.50
2023-05-13T11:11:37.802Z,97146.41
2023-05-13T11:15:47.911Z,97141.75
2023-05-13T11:19:50.192Z,97140.69
2023-05-13T11:24:00.249Z,97143.56
2023-05-13T11:28:01.542Z,97144.00
2023-05-13T11:32:03.327Z,97127.97
2023-05-13T11:36:04.983Z,97125.88
2023-05-13T11:40:11.209Z,97121.94
2023-05-13T11:44:12.338Z,97131.72
2023-05-13T11:48:26.207Z,97135.13
2023-05-13T11:52:26.540Z,97134.50
2023-05-13T11:56:33.130Z,97134.00
2023-05-13T12:00:35.747Z,97116.69
2023-05-13T12:04:36.305Z,97133.22
2023-05-13T12:08:36.805Z,97140.72
2023-05-13T12:12:43.374Z,97118.16
2023-05-13T12:16:44.105Z,97138.53
2023-05-13T12:20:45.003Z,97142.84
2023-05-13T12:24:45.277Z,97138.03
2023-05-13T12:28:48.167Z,97143.13
2023-05-13T12:32:48.538Z,97143.28
2023-05-13T12:36:48.777Z,97136.50
2023-05-13T12:40:50.261Z,97118.50
2023-05-13T12:44:53.371Z,97150.00
2023-05-13T12:48:59.039Z,97116.69
2023-05-13T12:53:00.816Z,97135.19
2023-05-13T12:57:01.322Z,97147.78
2023-05-13T13:01:04.450Z,97136.13
2023-05-13T13:05:05.538Z,97138.94
2023-05-13T13:09:06.225Z,97136.59
2023-05-13T13:13:06.629Z,97132.00
2023-05-13T13:17:09.997Z,97129.94
2023-05-13T13:21:10.487Z,97142.22
2023-05-13T13:25:11.552Z,97127.38
2023-05-13T13:29:11.971Z,97119.31
2023-05-13T13:33:15.967Z,97137.41
2023-05-13T13:37:16.312Z,97129.09
2023-05-13T13:41:16.656Z,97130.50
2023-05-13T13:45:17.215Z,97134.94
2023-05-13T13:49:23.991Z,97128.38
2023-05-13T13:53:24.895Z,97129.03
2023-05-13T13:57:25.288Z,97126.84
2023-05-13T14:01:25.961Z,97120.66
2023-05-13T14:05:29.505Z,97098.06
2023-05-13T14:09:29.848Z,97099.56
2023-05-13T14:13:30.065Z,97089.72
2023-05-13T14:17:30.545Z,97104.16
2023-05-13T14:21:35.139Z,97092.38
2023-05-13T14:25:35.536Z,97097.41
2023-05-13T14:29:36.138Z,97110.38
2023-05-13T14:33:36.452Z,97095.34
2023-05-13T14:37:39.508Z,97116.50
2023-05-13T14:41:41.125Z,97120.25
2023-05-13T14:45:41.399Z,97120.13
2023-05-13T14:49:42.824Z,97115.59
2023-05-13T14:53:45.971Z,97104.78
2023-05-13T14:57:46.625Z,97116.34
2023-05-13T15:01:46.981Z,97100.09
2023-05-13T15:05:50.446Z,97095.13
2023-05-13T15:09:53.338Z,97113.88
2023-05-13T15:13:53.709Z,97110.28
2023-05-13T15:17:54.938Z,97101.25
2023-05-13T15:21:55.600Z,97097.09
2023-05-13T15:25:58.524Z,97099.50
2023-05-13T15:29:59.003Z,97100.09
2023-05-13T15:33:59.667Z,97097.56
2023-05-13T15:38:00.282Z,97084.28
2023-05-13T15:42:03.144Z,97088.72
2023-05-13T15:46:03.732Z,97098.63
2023-05-13T15:50:04.167Z,97096.84
2023-05-13T15:54:04.500Z,97075.78
2023-05-13T15:58:10.104Z,97090.59
2023-05-13T16:02:10.473Z,97091.91
2023-05-13T16:06:10.826Z,97082.88
2023-05-13T16:10:11.869Z,97078.75
2023-05-13T16:14:14.850Z,97076.41
2023-05-13T16:18:15.255Z,97076.25
2023-05-13T16:22:31.030Z,97082.66
2023-05-13T16:26:31.419Z,97076.75
2023-05-13T16:30:34.756Z,97085.00
2023-05-13T16:34:35.075Z,97068.59
2023-05-13T16:38:35.853Z,97072.06
2023-05-13T16:42:36.122Z,97061.97
2023-05-13T16:46:44.074Z,97087.09
2023-05-13T16:50:44.644Z,97076.28
2023-05-13T16:54:45.216Z,97062.91
2023-05-13T16:58:45.597Z,97081.88
2023-05-13T17:02:48.884Z,97086.59
2023-05-13T17:06:49.562Z,97078.50
2023-05-13T17:10:49.951Z,97077.28
2023-05-13T17:14:50.904Z,97084.00
2023-05-13T17:18:54.128Z,97082.88
2023-05-13T17:22:54.929Z,97078.50
2023-05-13T17:26:56.017Z,97071.91
2023-05-13T17:30:56.674Z,97081.44
2023-05-13T17:35:00.176Z,97063.25
2023-05-13T17:39:00.747Z,97068.63
2023-05-13T17:43:03.614Z,97072.47
2023-05-13T17:47:04.655Z,97088.72
2023-05-13T17:51:07.998Z,97071.34
2023-05-13T17:55:10.094Z,97080.41
2023-05-13T17:59:10.556Z,97090.38
2023-05-13T18:03:10.875Z,97091.38
2023-05-13T18:07:13.778Z,97062.25
2023-05-13T18:11:13.995Z,97082.03
2023-05-13T18:15:14.571Z,97085.84
2023-05-13T18:19:14.964Z,97061.28
2023-05-13T18:23:18.106Z,97083.19
2023-05-13T18:27:18.450Z,97086.31
2023-05-13T18:31:19.125Z,97095.50
2023-05-13T18:35:21.748Z,96990.69
2023-05-13T18:39:24.735Z,97078.69
2023-05-13T18:43:25.021Z,97098.44
2023-05-13T18:47:25.519Z,97110.19
2023-05-13T18:51:25.897Z,97108.78
2023-05-13T18:55:28.696Z,97116.34
2023-05-13T18:59:29.908Z,97119.22
2023-05-13T19:03:30.900Z,97123.53
2023-05-13T19:07:31.200Z,97127.50
2023-05-13T19:11:34.307Z,97138.34
2023-05-13T19:15:34.675Z,97139.59
2023-05-13T19:19:34.881Z,97118.47
2023-05-13T19:23:35.111Z,97133.03
2023-05-13T19:27:39.312Z,97149.69
2023-05-13T19:31:40.178Z,97144.13
2023-05-13T19:35:40.583Z,97146.56
2023-05-13T19:39:40.788Z,97151.81
2023-05-13T19:43:43.524Z,97147.78
2023-05-13T19:47:43.789Z,97146.44
2023-05-13T19:51:44.216Z,97145.09
2023-05-13T19:55:44.428Z,97137.69
2023-05-13T19:59:47.281Z,97146.84
2023-05-13T20:03:47.634Z,97137.13
2023-05-13T20:07:47.972Z,97128.06
2023-05-13T20:11:48.183Z,97137.00
2023-05-13T20:15:50.941Z,97123.44
2023-05-13T20:19:54.011Z,97122.44
2023-05-13T20:23:54.196Z,97122.22
2023-05-13T20:27:54.899Z,97110.78
2023-05-13T20:31:57.692Z,97132.75
2023-05-13T20:35:58.636Z,97120.44
2023-05-13T20:39:58.838Z,97121.56
2023-05-13T20:43:59.023Z,97133.09
2023-05-13T20:48:01.920Z,97131.75
2023-05-13T20:52:09.154Z,97118.13
2023-05-13T20:56:10.602Z,97125.34
2023-05-13T21:00:13.800Z,97118.41
2023-05-13T21:04:17.481Z,97120.59
2023-05-13T21:08:19.176Z,97119.47
2023-05-13T21:12:19.399Z,97118.41
2023-05-13T21:16:19.694Z,97114.09
2023-05-13T21:20:23.293Z,97106.03
2023-05-13T21:24:23.695Z,97102.75
2023-05-13T21:28:26.242Z,97119.63
2023-05-13T21:32:26.660Z,97114.31
2023-05-13T21:36:29.562Z,97083.03
2023-05-13T21:40:29.781Z,97094.00
2023-05-13T21:44:30.648Z,97115.44
2023-05-13T21:48:30.933Z,97106.59
2023-05-13T21:52:33.763Z,97105.53
2023-05-13T21:56:34.034Z,97114.63
2023-05-13T22:00:34.813Z,97115.66
2023-05-13T22:04:35.161Z,97107.09
2023-05-13T22:08:38.093Z,97107.63
2023-05-13T22:12:38.912Z,97101.16
2023-05-13T22:16:39.200Z,97096.06
2023-05-13T22:20:39.560Z,97087.97
2023-05-13T22:24:42.430Z,97078.63
2023-05-13T22:28:42.822Z,97094.03
2023-05-13T22:32:43.171Z,97065.53
2023-05-13T22:36:44.029Z,97087.94
2023-05-13T22:40:46.878Z,97088.25
2023-05-13T22:44:47.141Z,97089.91
2023-05-13T22:48:47.366Z,97079.78
2023-05-13T22:52:47.709Z,97078.19
2023-05-13T22:56:51.177Z,97067.50
2023-05-13T23:00:52.077Z,97049.84
2023-05-13T23:04:52.326Z,97065.91
2023-05-13T23:08:52.494Z,97069.63
2023-05-13T23:12:56.637Z,97065.09
2023-05-13T23:16:56.905Z,97055.34
2023-05-13T23:20:58.521Z,97050.25
2023-05-13T23:24:58.688Z,97055.91
2023-05-13T23:29:01.678Z,97055.34
2023-05-13T23:33:02.174Z,97048.66
2023-05-13T23:37:02.508Z,97056.97
2023-05-13T23:41:02.798Z,97051.31
2023-05-13T23:45:05.819Z,97029.34
2023-05-13T23:49:06.171Z,97043.78
2023-05-13T23:53:06.482Z,97047.56
2023-05-13T23:57:06.953Z,97044.91
